Portada
METAR-TAF:

METAR-TAF

Aeropuertos :

Saint-Etienne, Francia

Aeropuerto de Saint-Étienne - Bouthéon

latitud: 45-32N, longitud: 004-18E, altitud: 404 m

Observación

El informe se hizo hace 16 minutos, a las 08:00 UTC
Viento 2 kt con dirección variable
Temperatura 13°C
Humedad 51%
Presión 1025 hPa
Visibilidad 10 km o más
sin nubes por debajo de 1500 m y sin presencia de cumulonimbus.

METAR: LFMH 280800Z AUTO VRB02KT CAVOK 13/03 Q1025 NOSIG

Hora: 10:16 (08:16 UTC)

Pronóstico

El informe se hizo hace 6 horas y 16 minutos, a las 02:00 UTC
Pronóstico válido del 28 a las 03 UTC al 29 a las 03 UTC
Viento 10 kt del sur-sureste
Visibilidad 10 km o más
sin nubes por debajo de 1500 m y sin presencia de cumulonimbus.
Evolucionando progresivamente
del 28 a las 12 UTC al 28 a las 14 UTC
Viento 8 kt del norte

TAF: LFMH 280200Z 2803/2903 16010KT CAVOK BECMG 2812/2814 35008KT

Observaciones y pronósticos meteorológicos de más de 4000 aeropuertos (mensajes METAR y TAF).

Los puntos amarillos y rojos representan las estaciones disponibles.

Ponga el ratón en el punto deseado para ver el nombre de la estación.

Haga clic para ver las observaciones y los pronósticos meteorológicos.

Para cambiar el mapa : haga clic en los botones verdes con una cruz de color negro para hacer un zoom, en el botón verde con un guión para alejar o en las flechas verdes para mapas adyacentes.


METAR-TAF: